createdAt,value
2018-08-04T00:00:42.592Z,40.53
2018-08-04T00:03:12.228Z,40.12
2018-08-04T00:05:42.174Z,40.23
2018-08-04T00:08:11.891Z,41.01
2018-08-04T00:10:41.636Z,40.35
2018-08-04T00:13:11.455Z,40.71
2018-08-04T00:15:41.060Z,40.71
2018-08-04T00:18:10.669Z,41.69
2018-08-04T00:20:40.072Z,41.53
2018-08-04T00:23:09.604Z,41.32
2018-08-04T00:25:39.287Z,42.75
2018-08-04T00:28:08.977Z,43.24
2018-08-04T00:30:38.820Z,42.35
2018-08-04T00:33:08.619Z,40.93
2018-08-04T00:35:38.076Z,41.55
2018-08-04T00:38:07.520Z,42.33
2018-08-04T00:40:37.338Z,43.52
2018-08-04T00:43:07.766Z,42.25
2018-08-04T00:45:37.408Z,42.94
2018-08-04T00:48:07.245Z,42.39
2018-08-04T00:50:36.896Z,42.97
2018-08-04T00:53:06.913Z,42.74
2018-08-04T00:55:36.828Z,42.47
2018-08-04T00:58:06.948Z,43.07
2018-08-04T01:00:36.967Z,42.27
2018-08-04T01:03:06.775Z,43.40
2018-08-04T01:05:36.782Z,42.76
2018-08-04T01:08:06.093Z,43.79
2018-08-04T01:10:35.712Z,44.19
2018-08-04T01:13:05.262Z,43.78
2018-08-04T01:15:34.709Z,45.26
2018-08-04T01:18:03.956Z,43.93
2018-08-04T01:20:33.233Z,45.01
2018-08-04T01:23:02.501Z,42.93
2018-08-04T01:25:31.743Z,42.53
2018-08-04T01:28:01.008Z,43.08
2018-08-04T01:30:30.431Z,43.12
2018-08-04T01:32:59.717Z,42.91
2018-08-04T01:35:29.233Z,43.37
2018-08-04T01:37:58.591Z,43.45
2018-08-04T01:40:27.926Z,42.20
2018-08-04T01:42:57.302Z,43.68
2018-08-04T01:45:26.537Z,45.51
2018-08-04T01:47:55.889Z,44.34
2018-08-04T01:50:25.130Z,44.07
2018-08-04T01:52:54.428Z,44.29
2018-08-04T01:55:23.745Z,44.78
2018-08-04T01:57:53.152Z,44.35
2018-08-04T02:00:22.529Z,46.11
2018-08-04T02:02:51.737Z,46.02
2018-08-04T02:05:21.160Z,45.93
2018-08-04T02:07:50.440Z,45.49
2018-08-04T02:10:19.879Z,46.45
2018-08-04T02:12:49.105Z,46.27
2018-08-04T02:15:18.344Z,46.17
2018-08-04T02:17:47.582Z,46.06
2018-08-04T02:20:16.846Z,45.83
2018-08-04T02:22:46.122Z,47.59
2018-08-04T02:25:15.526Z,46.45
2018-08-04T02:27:44.581Z,47.56
2018-08-04T02:30:13.842Z,47.23
2018-08-04T02:32:43.300Z,48.09
2018-08-04T02:35:12.765Z,48.15
2018-08-04T02:37:42.058Z,48.52
2018-08-04T02:40:11.358Z,49.48
2018-08-04T02:42:40.633Z,47.81
2018-08-04T02:45:10.337Z,48.19
2018-08-04T02:47:39.621Z,48.45
2018-08-04T02:50:09.436Z,48.25
2018-08-04T02:52:38.768Z,48.75
2018-08-04T02:55:07.966Z,49.01
2018-08-04T02:57:37.150Z,49.90
2018-08-04T03:00:07.003Z,51.69
2018-08-04T03:02:36.390Z,51.68
2018-08-04T03:05:05.808Z,52.18
2018-08-04T03:07:35.141Z,52.54
2018-08-04T03:10:04.497Z,51.44
2018-08-04T03:12:33.851Z,52.76
2018-08-04T03:15:03.181Z,52.72
2018-08-04T03:17:32.574Z,52.22
2018-08-04T03:20:01.821Z,51.89
2018-08-04T03:22:31.095Z,50.72
2018-08-04T03:25:00.409Z,51.45
2018-08-04T03:27:29.764Z,50.61
2018-08-04T03:29:58.992Z,50.74
2018-08-04T03:32:28.311Z,51.38
2018-08-04T03:34:57.638Z,51.12
2018-08-04T03:37:26.916Z,50.76
2018-08-04T03:39:56.298Z,52.24
2018-08-04T03:42:26.017Z,53.44
2018-08-04T03:44:55.273Z,53.31
2018-08-04T03:47:24.523Z,53.98
2018-08-04T03:49:53.811Z,53.80
2018-08-04T03:52:23.084Z,52.91
2018-08-04T03:54:52.257Z,53.24
2018-08-04T03:57:21.477Z,52.64
2018-08-04T03:59:50.726Z,52.00
2018-08-04T04:02:20.154Z,53.15
2018-08-04T04:04:49.512Z,52.18
2018-08-04T04:07:18.826Z,52.98
2018-08-04T04:09:48.752Z,52.38
2018-08-04T04:12:18.446Z,51.60
2018-08-04T04:14:47.799Z,51.83
2018-08-04T04:17:17.071Z,51.48
2018-08-04T04:19:46.433Z,52.55
2018-08-04T04:22:15.781Z,51.51
2018-08-04T04:24:45.291Z,50.28
2018-08-04T04:27:14.465Z,50.98
2018-08-04T04:29:43.713Z,50.92
2018-08-04T04:32:13.049Z,50.95
2018-08-04T04:34:42.282Z,51.50
2018-08-04T04:37:11.529Z,52.37
2018-08-04T04:39:40.911Z,51.69
2018-08-04T04:42:10.265Z,51.36
2018-08-04T04:44:39.381Z,51.82
2018-08-04T04:47:08.662Z,50.22
2018-08-04T04:49:37.997Z,49.03
2018-08-04T04:52:07.252Z,50.21
2018-08-04T04:54:36.428Z,50.52
2018-08-04T04:57:05.779Z,50.49
2018-08-04T04:59:35.001Z,50.16
2018-08-04T05:02:04.394Z,48.98
2018-08-04T05:04:33.759Z,49.29
2018-08-04T05:07:03.109Z,49.56
2018-08-04T05:09:32.334Z,47.97
2018-08-04T05:12:01.661Z,48.83
2018-08-04T05:14:31.146Z,48.16
2018-08-04T05:17:00.681Z,48.52
2018-08-04T05:19:29.911Z,47.80
2018-08-04T05:21:59.160Z,46.69
2018-08-04T05:24:28.485Z,42.13
2018-08-04T05:26:57.805Z,41.24
2018-08-04T05:29:27.057Z,41.46
2018-08-04T05:31:56.433Z,44.37
2018-08-04T05:34:25.653Z,49.97
2018-08-04T05:36:55.314Z,50.16
2018-08-04T05:39:24.546Z,48.02
2018-08-04T05:41:53.881Z,46.41
2018-08-04T05:44:23.180Z,45.98
2018-08-04T05:46:52.606Z,45.71
2018-08-04T05:49:21.870Z,45.76
2018-08-04T05:51:51.284Z,46.25
2018-08-04T05:54:20.660Z,47.48
2018-08-04T05:56:50.093Z,47.76
2018-08-04T05:59:19.799Z,47.66
2018-08-04T06:01:49.106Z,46.33
2018-08-04T06:04:18.349Z,46.33
2018-08-04T06:06:47.653Z,45.03
2018-08-04T06:09:16.986Z,45.16
2018-08-04T06:11:46.190Z,45.48
2018-08-04T06:14:15.446Z,44.54
2018-08-04T06:16:44.805Z,42.90
2018-08-04T06:19:14.083Z,38.28
2018-08-04T06:21:43.482Z,38.57
2018-08-04T06:24:12.633Z,39.52
2018-08-04T06:26:42.186Z,39.80
2018-08-04T06:29:11.622Z,36.91
2018-08-04T06:31:41.054Z,33.19
2018-08-04T06:34:10.188Z,33.97
2018-08-04T06:36:39.454Z,33.08
2018-08-04T06:39:09.330Z,32.95
2018-08-04T06:41:38.585Z,32.22
2018-08-04T06:44:07.963Z,31.65
2018-08-04T06:46:37.170Z,30.83
2018-08-04T06:49:06.449Z,31.08
2018-08-04T06:51:35.737Z,30.85
2018-08-04T06:54:05.185Z,31.50
2018-08-04T06:56:34.418Z,29.78
2018-08-04T06:59:03.827Z,29.86
2018-08-04T07:01:33.205Z,30.28
2018-08-04T07:04:02.536Z,30.10
2018-08-04T07:06:31.825Z,30.01
2018-08-04T07:09:01.149Z,30.92
2018-08-04T07:11:30.414Z,29.61
2018-08-04T07:13:59.705Z,29.88
2018-08-04T07:16:28.903Z,29.16
2018-08-04T07:18:58.226Z,29.51
2018-08-04T07:21:27.487Z,29.08
2018-08-04T07:23:56.749Z,28.85
2018-08-04T07:26:26.105Z,27.07
2018-08-04T07:28:55.451Z,27.07
2018-08-04T07:31:24.801Z,26.59
2018-08-04T07:33:54.166Z,27.23
2018-08-04T07:36:23.669Z,27.04
2018-08-04T07:38:52.966Z,27.22
2018-08-04T07:41:22.210Z,27.49
2018-08-04T07:43:51.566Z,26.71
2018-08-04T07:46:20.807Z,27.82
2018-08-04T07:48:50.109Z,27.84
2018-08-04T07:51:19.276Z,27.07
2018-08-04T07:53:48.449Z,27.33
2018-08-04T07:56:17.855Z,27.34
2018-08-04T07:58:47.265Z,27.10
2018-08-04T08:01:16.525Z,26.65
2018-08-04T08:03:46.059Z,27.21
2018-08-04T08:06:15.341Z,25.43
2018-08-04T08:08:44.813Z,25.37
2018-08-04T08:11:14.135Z,25.33
2018-08-04T08:13:43.389Z,25.05
2018-08-04T08:16:12.662Z,24.85
2018-08-04T08:18:42.066Z,24.87
2018-08-04T08:21:11.343Z,25.34
2018-08-04T08:23:40.678Z,25.17
2018-08-04T08:26:11.714Z,25.12
2018-08-04T08:28:41.845Z,25.19
2018-08-04T08:31:11.276Z,24.26
2018-08-04T08:33:41.202Z,24.67
2018-08-04T08:36:10.764Z,23.48
2018-08-04T08:38:40.090Z,25.26
2018-08-04T08:41:09.527Z,23.49
2018-08-04T08:43:38.769Z,23.66
2018-08-04T08:46:08.134Z,23.82
2018-08-04T08:48:37.347Z,23.74
2018-08-04T08:51:06.696Z,23.97
2018-08-04T08:53:36.145Z,23.43
2018-08-04T08:56:05.102Z,23.11
2018-08-04T08:58:34.460Z,22.81
2018-08-04T09:01:03.597Z,23.16
2018-08-04T09:03:32.841Z,23.60
2018-08-04T09:06:02.096Z,24.18
2018-08-04T09:08:31.462Z,23.62
2018-08-04T09:11:00.694Z,23.04
2018-08-04T09:13:30.071Z,22.16
2018-08-04T09:15:59.311Z,21.57
2018-08-04T09:18:28.612Z,22.96
2018-08-04T09:20:57.826Z,22.82
2018-08-04T09:23:27.159Z,24.49
2018-08-04T09:25:56.434Z,24.03
2018-08-04T09:28:25.802Z,23.67
2018-08-04T09:30:55.103Z,23.63
2018-08-04T09:33:24.480Z,23.38
2018-08-04T09:35:53.755Z,22.24
2018-08-04T09:38:23.068Z,23.32
2018-08-04T09:40:52.426Z,23.05
2018-08-04T09:43:21.863Z,22.01
2018-08-04T09:45:51.180Z,22.98
2018-08-04T09:48:20.521Z,22.43
2018-08-04T09:50:49.617Z,21.65
2018-08-04T09:53:18.986Z,21.50
2018-08-04T09:55:48.430Z,21.07
2018-08-04T09:58:17.653Z,22.33
2018-08-04T10:00:51.848Z,20.88
2018-08-04T10:03:21.116Z,19.83
2018-08-04T10:05:50.462Z,20.40
2018-08-04T10:08:19.674Z,20.41
2018-08-04T10:10:48.931Z,21.30
2018-08-04T10:13:18.425Z,20.51
2018-08-04T10:15:47.633Z,20.38
2018-08-04T10:18:16.884Z,20.04
2018-08-04T10:20:46.138Z,20.28
2018-08-04T10:23:15.471Z,19.52
2018-08-04T10:25:44.689Z,19.47
2018-08-04T10:28:13.941Z,19.45
2018-08-04T10:30:43.186Z,20.35
2018-08-04T10:33:12.432Z,20.37
2018-08-04T10:35:41.527Z,20.13
2018-08-04T10:38:10.843Z,19.02
2018-08-04T10:40:40.094Z,18.51
2018-08-04T10:43:09.765Z,18.96
2018-08-04T10:45:39.180Z,19.43
2018-08-04T10:48:08.341Z,19.25
2018-08-04T10:50:37.710Z,18.83
2018-08-04T10:53:07.164Z,19.97
2018-08-04T10:55:36.365Z,19.00
2018-08-04T10:58:05.600Z,19.18
2018-08-04T11:00:35.434Z,21.24
2018-08-04T11:03:04.758Z,19.53
2018-08-04T11:05:34.248Z,20.47
2018-08-04T11:08:03.657Z,20.07
2018-08-04T11:10:32.931Z,19.56
2018-08-04T11:13:02.324Z,19.41
2018-08-04T11:15:31.645Z,20.43
2018-08-04T11:18:00.841Z,20.36
2018-08-04T11:20:30.149Z,19.22
2018-08-04T11:22:59.389Z,19.88
2018-08-04T11:25:28.722Z,19.18
2018-08-04T11:27:58.153Z,19.70
2018-08-04T11:30:27.545Z,21.08
2018-08-04T11:32:56.989Z,21.15
2018-08-04T11:35:26.264Z,20.87
2018-08-04T11:37:55.519Z,21.96
2018-08-04T11:40:24.823Z,21.41
2018-08-04T11:42:54.071Z,20.87
2018-08-04T11:45:23.465Z,20.01
2018-08-04T11:47:52.740Z,21.00
2018-08-04T11:50:22.040Z,20.97
2018-08-04T11:52:51.545Z,20.42
2018-08-04T11:55:20.834Z,19.58
2018-08-04T11:57:50.174Z,19.49
2018-08-04T12:00:19.449Z,19.47
2018-08-04T12:02:48.949Z,18.63
2018-08-04T12:05:18.746Z,18.86
2018-08-04T12:07:48.064Z,19.29
2018-08-04T12:10:17.474Z,18.14
2018-08-04T12:12:46.836Z,17.93
2018-08-04T12:15:16.108Z,17.88
2018-08-04T12:17:45.315Z,17.99
2018-08-04T12:20:14.908Z,17.34
2018-08-04T12:22:44.157Z,17.21
2018-08-04T12:25:13.521Z,17.02
2018-08-04T12:27:42.774Z,17.50
2018-08-04T12:30:12.102Z,16.41
2018-08-04T12:32:41.479Z,16.90
2018-08-04T12:35:10.749Z,17.18
2018-08-04T12:37:40.287Z,16.81
2018-08-04T12:40:09.718Z,16.29
2018-08-04T12:42:39.190Z,16.48
2018-08-04T12:45:09.525Z,16.20
2018-08-04T12:47:39.246Z,16.44
2018-08-04T12:50:08.942Z,16.73
2018-08-04T12:52:38.234Z,16.35
2018-08-04T12:55:07.674Z,16.11
2018-08-04T12:57:37.043Z,15.89
2018-08-04T13:00:07.189Z,15.71
2018-08-04T13:02:36.503Z,16.21
2018-08-04T13:05:06.732Z,15.92
2018-08-04T13:07:36.070Z,15.65
2018-08-04T13:10:05.602Z,15.57
2018-08-04T13:12:34.873Z,15.33
2018-08-04T13:15:04.303Z,15.99
2018-08-04T13:17:33.606Z,14.67
2018-08-04T13:20:03.061Z,15.36
2018-08-04T13:22:32.498Z,15.60
2018-08-04T13:25:01.622Z,15.50
2018-08-04T13:27:30.875Z,15.38
2018-08-04T13:30:00.207Z,14.66
2018-08-04T13:32:29.507Z,14.51
2018-08-04T13:34:58.729Z,14.45
2018-08-04T13:37:27.945Z,15.03
2018-08-04T13:39:57.298Z,14.26
2018-08-04T13:42:26.579Z,17.48
2018-08-04T13:44:55.906Z,16.97
2018-08-04T13:47:25.274Z,14.06
2018-08-04T13:49:54.525Z,14.86
2018-08-04T13:52:23.989Z,15.07
2018-08-04T13:54:53.315Z,15.13
2018-08-04T13:57:22.994Z,14.52
2018-08-04T13:59:52.192Z,14.49
2018-08-04T14:02:21.457Z,14.29
2018-08-04T14:04:50.689Z,13.99
2018-08-04T14:07:20.050Z,14.62
2018-08-04T14:09:49.617Z,14.15
2018-08-04T14:12:19.030Z,13.77
2018-08-04T14:14:48.430Z,14.11
2018-08-04T14:17:17.908Z,13.84
2018-08-04T14:19:47.114Z,13.72
2018-08-04T14:22:16.507Z,15.13
2018-08-04T14:24:45.850Z,14.97
2018-08-04T14:27:15.155Z,14.78
2018-08-04T14:29:44.294Z,14.38
2018-08-04T14:32:13.442Z,14.79
2018-08-04T14:34:42.850Z,14.06
2018-08-04T14:37:12.163Z,14.10
2018-08-04T14:39:41.416Z,14.61
2018-08-04T14:42:10.745Z,13.89
2018-08-04T14:44:39.938Z,14.46
2018-08-04T14:47:09.243Z,14.64
2018-08-04T14:49:38.583Z,14.24
2018-08-04T14:52:07.986Z,14.28
2018-08-04T14:54:37.194Z,14.40
2018-08-04T14:57:06.523Z,14.28
2018-08-04T14:59:35.793Z,15.19
2018-08-04T15:02:05.032Z,14.61
2018-08-04T15:04:34.576Z,14.82
2018-08-04T15:07:04.013Z,14.60
2018-08-04T15:09:33.378Z,15.02
2018-08-04T15:12:02.797Z,15.42
2018-08-04T15:14:32.140Z,15.04
2018-08-04T15:17:01.406Z,14.33
2018-08-04T15:19:30.749Z,14.28
2018-08-04T15:22:00.044Z,14.32
2018-08-04T15:24:29.363Z,14.72
2018-08-04T15:26:58.739Z,14.35
2018-08-04T15:29:27.825Z,14.08
2018-08-04T15:31:57.094Z,14.92
2018-08-04T15:34:26.364Z,15.24
2018-08-04T15:36:55.693Z,14.45
2018-08-04T15:39:24.795Z,14.30
2018-08-04T15:41:54.167Z,15.38
2018-08-04T15:44:23.464Z,14.68
2018-08-04T15:46:52.764Z,15.45
2018-08-04T15:49:22.068Z,15.68
2018-08-04T15:51:51.354Z,15.69
2018-08-04T15:54:20.551Z,15.11
2018-08-04T15:56:49.835Z,14.63
2018-08-04T15:59:19.270Z,14.57
2018-08-04T16:01:48.713Z,15.00
2018-08-04T16:04:17.798Z,14.91
2018-08-04T16:06:47.174Z,15.87
2018-08-04T16:09:16.468Z,14.99
2018-08-04T16:11:45.778Z,15.19
2018-08-04T16:14:15.174Z,15.49
2018-08-04T16:16:44.606Z,15.13
2018-08-04T16:19:13.815Z,15.20
2018-08-04T16:21:43.166Z,16.00
2018-08-04T16:24:12.437Z,15.00
2018-08-04T16:26:41.710Z,16.03
2018-08-04T16:29:10.946Z,15.11
2018-08-04T16:31:40.330Z,14.91
2018-08-04T16:34:09.581Z,15.67
2018-08-04T16:36:38.877Z,15.57
2018-08-04T16:39:09.642Z,15.73
2018-08-04T16:41:39.114Z,15.24
2018-08-04T16:44:08.289Z,15.93
2018-08-04T16:46:37.833Z,16.05
2018-08-04T16:49:07.113Z,16.60
2018-08-04T16:51:36.435Z,17.05
2018-08-04T16:54:05.757Z,17.04
2018-08-04T16:56:35.042Z,16.42
2018-08-04T16:59:04.182Z,16.72
2018-08-04T17:01:33.523Z,17.37
2018-08-04T17:04:02.822Z,17.34
2018-08-04T17:06:32.251Z,17.53
2018-08-04T17:09:01.522Z,17.31
2018-08-04T17:11:30.826Z,17.86
2018-08-04T17:14:00.103Z,17.34
2018-08-04T17:16:29.520Z,18.16
2018-08-04T17:18:58.766Z,17.72
2018-08-04T17:21:28.136Z,17.94
2018-08-04T17:23:57.481Z,18.02
2018-08-04T17:26:26.833Z,18.15
2018-08-04T17:28:56.098Z,17.90
2018-08-04T17:31:25.441Z,18.14
2018-08-04T17:33:54.621Z,18.53
2018-08-04T17:36:23.920Z,18.62
2018-08-04T17:38:53.237Z,18.61
2018-08-04T17:41:22.483Z,18.89
2018-08-04T17:43:51.998Z,18.74
2018-08-04T17:46:21.855Z,18.63
2018-08-04T17:48:51.274Z,18.85
2018-08-04T17:51:20.759Z,19.22
2018-08-04T17:53:50.162Z,18.53
2018-08-04T17:56:19.442Z,18.61
2018-08-04T17:58:48.888Z,18.92
2018-08-04T18:01:18.391Z,19.12
2018-08-04T18:03:47.711Z,18.73
2018-08-04T18:06:17.069Z,19.53
2018-08-04T18:08:46.485Z,19.21
2018-08-04T18:11:15.796Z,19.62
2018-08-04T18:13:45.062Z,19.60
2018-08-04T18:16:14.343Z,19.57
2018-08-04T18:18:43.820Z,18.91
2018-08-04T18:21:13.025Z,19.70
2018-08-04T18:23:42.293Z,19.70
2018-08-04T18:26:11.625Z,19.92
2018-08-04T18:28:40.881Z,19.14
2018-08-04T18:31:10.155Z,19.45
2018-08-04T18:33:39.389Z,19.36
2018-08-04T18:36:08.685Z,19.93
2018-08-04T18:38:38.067Z,19.47
2018-08-04T18:41:07.292Z,19.41
2018-08-04T18:43:36.610Z,20.26
2018-08-04T18:46:05.889Z,20.15
2018-08-04T18:48:35.231Z,20.00
2018-08-04T18:51:04.529Z,20.37
2018-08-04T18:53:33.887Z,20.84
2018-08-04T18:56:03.350Z,20.71
2018-08-04T18:58:32.628Z,20.28
2018-08-04T19:01:01.863Z,21.66
2018-08-04T19:03:31.301Z,20.87
2018-08-04T19:06:00.661Z,20.96
2018-08-04T19:08:29.916Z,21.11
2018-08-04T19:10:59.263Z,21.66
2018-08-04T19:13:28.534Z,21.45
2018-08-04T19:15:57.976Z,21.38
2018-08-04T19:18:27.342Z,21.02
2018-08-04T19:20:56.674Z,21.67
2018-08-04T19:23:25.921Z,21.65
2018-08-04T19:25:55.277Z,21.77
2018-08-04T19:28:24.657Z,22.21
2018-08-04T19:30:53.883Z,21.87
2018-08-04T19:33:23.360Z,22.47
2018-08-04T19:35:52.599Z,21.86
2018-08-04T19:38:21.991Z,22.09
2018-08-04T19:40:51.263Z,22.30
2018-08-04T19:43:20.601Z,22.71
2018-08-04T19:45:49.954Z,22.36
2018-08-04T19:48:19.212Z,22.43
2018-08-04T19:50:48.622Z,22.03
2018-08-04T19:53:17.922Z,22.47
2018-08-04T19:55:47.249Z,22.71
2018-08-04T19:58:16.529Z,23.00
2018-08-04T20:00:45.978Z,22.20
2018-08-04T20:03:15.267Z,22.35
2018-08-04T20:05:44.809Z,22.67
2018-08-04T20:08:14.168Z,22.86
2018-08-04T20:10:43.463Z,22.95
2018-08-04T20:13:12.660Z,22.52
2018-08-04T20:15:41.910Z,23.06
2018-08-04T20:18:11.254Z,24.20
2018-08-04T20:20:40.539Z,22.85
2018-08-04T20:23:09.854Z,23.23
2018-08-04T20:25:39.242Z,23.72
2018-08-04T20:28:08.705Z,24.06
2018-08-04T20:30:38.075Z,24.59
2018-08-04T20:33:07.383Z,24.36
2018-08-04T20:35:36.601Z,25.11
2018-08-04T20:38:05.812Z,24.49
2018-08-04T20:40:34.999Z,25.37
2018-08-04T20:43:04.340Z,25.46
2018-08-04T20:45:33.602Z,25.00
2018-08-04T20:48:02.784Z,25.73
2018-08-04T20:50:33.070Z,25.50
2018-08-04T20:53:02.350Z,25.53
2018-08-04T20:55:31.554Z,26.19
2018-08-04T20:58:00.845Z,26.56
2018-08-04T21:00:36.683Z,26.87
2018-08-04T21:03:05.931Z,26.91
2018-08-04T21:05:35.205Z,26.59
2018-08-04T21:08:04.549Z,26.25
2018-08-04T21:10:33.882Z,26.82
2018-08-04T21:13:03.085Z,26.95
2018-08-04T21:15:32.314Z,26.90
2018-08-04T21:18:01.508Z,27.57
2018-08-04T21:20:30.942Z,27.17
2018-08-04T21:23:00.333Z,27.78
2018-08-04T21:25:29.719Z,28.18
2018-08-04T21:27:58.891Z,28.00
2018-08-04T21:30:28.224Z,28.33
2018-08-04T21:32:57.671Z,28.85
2018-08-04T21:35:26.923Z,28.67
2018-08-04T21:37:56.100Z,28.34
2018-08-04T21:40:25.310Z,28.92
2018-08-04T21:42:54.483Z,29.04
2018-08-04T21:45:23.814Z,29.40
2018-08-04T21:47:53.406Z,29.27
2018-08-04T21:50:22.616Z,29.20
2018-08-04T21:52:52.103Z,29.09
2018-08-04T21:55:21.438Z,29.38
2018-08-04T21:57:50.715Z,29.66
2018-08-04T22:00:19.950Z,29.00
2018-08-04T22:02:57.981Z,29.96
2018-08-04T22:05:27.902Z,29.92
2018-08-04T22:08:09.009Z,30.74
2018-08-04T22:10:38.211Z,30.11
2018-08-04T22:13:07.469Z,30.87
2018-08-04T22:15:36.850Z,31.22
2018-08-04T22:18:06.105Z,31.37
2018-08-04T22:20:35.541Z,30.35
2018-08-04T22:23:04.842Z,31.18
2018-08-04T22:25:34.175Z,31.34
2018-08-04T22:28:03.206Z,31.99
2018-08-04T22:30:32.688Z,32.63
2018-08-04T22:33:01.966Z,31.22
2018-08-04T22:35:31.356Z,32.81
2018-08-04T22:38:00.648Z,31.90
2018-08-04T22:40:30.082Z,32.63
2018-08-04T22:42:59.329Z,33.17
2018-08-04T22:45:45.135Z,32.76
2018-08-04T22:48:14.399Z,32.04
2018-08-04T22:50:43.750Z,31.50
2018-08-04T22:53:13.202Z,32.97
2018-08-04T22:55:43.203Z,33.78
2018-08-04T22:58:12.688Z,33.06
2018-08-04T23:00:43.145Z,32.83
2018-08-04T23:03:12.892Z,32.39
2018-08-04T23:05:42.284Z,32.11
2018-08-04T23:08:12.447Z,33.90
2018-08-04T23:10:42.152Z,32.52
2018-08-04T23:13:11.869Z,33.99
2018-08-04T23:15:41.261Z,34.00
2018-08-04T23:18:10.832Z,33.78
2018-08-04T23:20:40.215Z,33.56
2018-08-04T23:23:10.610Z,33.46
2018-08-04T23:25:39.982Z,34.80
2018-08-04T23:28:09.745Z,34.22
2018-08-04T23:30:39.103Z,34.80
2018-08-04T23:33:08.476Z,34.28
2018-08-04T23:35:37.897Z,34.91
2018-08-04T23:38:07.073Z,35.22
2018-08-04T23:40:36.433Z,35.22
2018-08-04T23:43:05.646Z,35.25
2018-08-04T23:45:35.112Z,36.21
2018-08-04T23:48:04.487Z,35.58
2018-08-04T23:50:33.731Z,35.46
2018-08-04T23:53:02.931Z,36.74
2018-08-04T23:55:32.341Z,36.39
2018-08-04T23:58:01.574Z,37.03
